createdAt,value
2017-06-14T00:00:02.179Z,80.06
2017-06-14T00:10:02.182Z,80.09
2017-06-14T00:20:02.124Z,79.97
2017-06-14T00:30:02.564Z,81.7
2017-06-14T00:40:02.741Z,81.15
2017-06-14T00:50:02.763Z,82.05
2017-06-14T01:00:02.244Z,82.39
2017-06-14T01:10:02.240Z,83.12
2017-06-14T01:20:02.350Z,83.89
2017-06-14T01:30:02.805Z,82.92
2017-06-14T01:40:02.322Z,84.73
2017-06-14T01:50:02.682Z,83.86
2017-06-14T02:00:02.165Z,84.27
2017-06-14T02:10:02.936Z,85.37
2017-06-14T02:20:02.795Z,86.13
2017-06-14T02:30:02.247Z,85.63
2017-06-14T02:40:02.051Z,86.62
2017-06-14T02:50:02.037Z,86.23
2017-06-14T03:00:02.524Z,86.14
2017-06-14T03:10:02.262Z,86.49
2017-06-14T03:20:02.229Z,86.06
2017-06-14T03:30:02.698Z,86.46
2017-06-14T03:40:02.480Z,86.75
2017-06-14T03:50:02.442Z,87.24
2017-06-14T04:00:02.927Z,87.56
2017-06-14T04:10:02.720Z,88.58
2017-06-14T04:20:02.678Z,88.17
2017-06-14T04:30:02.170Z,89.23
2017-06-14T04:40:02.434Z,89.8
2017-06-14T04:50:02.356Z,90.39
2017-06-14T05:00:02.139Z,89.85
2017-06-14T05:10:02.064Z,89.43
2017-06-14T05:20:02.095Z,88.57
2017-06-14T05:30:02.579Z,87.57
2017-06-14T05:40:02.235Z,86.94
2017-06-14T05:50:02.217Z,86.52
2017-06-14T06:00:02.726Z,86.11
2017-06-14T06:10:02.843Z,85.48
2017-06-14T06:20:02.982Z,84.69
2017-06-14T06:30:02.433Z,84.08
2017-06-14T06:40:02.279Z,83.14
2017-06-14T06:50:02.036Z,81.06
2017-06-14T07:00:02.506Z,76.38
2017-06-14T07:10:02.238Z,74.42
2017-06-14T07:20:02.613Z,69.11
2017-06-14T07:30:02.060Z,66.42
2017-06-14T07:40:02.283Z,64.1
2017-06-14T07:50:02.156Z,61.83
2017-06-14T08:00:02.615Z,57.64
2017-06-14T08:10:02.331Z,56.4
2017-06-14T08:20:03.030Z,55.08
2017-06-14T08:30:02.489Z,52.67
2017-06-14T08:40:02.488Z,53.93
2017-06-14T08:50:02.525Z,51.08
2017-06-14T09:00:03.020Z,50.61
2017-06-14T09:10:02.724Z,49.56
2017-06-14T09:20:02.142Z,48.71
2017-06-14T09:30:02.594Z,49.11
2017-06-14T09:40:02.555Z,49.36
2017-06-14T09:50:02.272Z,48.77
2017-06-14T10:00:02.760Z,49.45
2017-06-14T10:10:02.666Z,48.76
2017-06-14T10:20:02.318Z,49.73
2017-06-14T10:30:02.787Z,48.33
2017-06-14T10:40:02.170Z,49.84
2017-06-14T10:50:02.917Z,47.87
2017-06-14T11:00:02.420Z,49.11
2017-06-14T11:10:02.645Z,45.78
2017-06-14T11:20:02.648Z,46.3
2017-06-14T11:30:02.125Z,43.73
2017-06-14T11:40:02.701Z,45.53
2017-06-14T11:50:02.683Z,44.09
2017-06-14T12:00:02.159Z,44.72
2017-06-14T12:10:02.232Z,43.51
2017-06-14T12:20:02.740Z,40.6
2017-06-14T12:30:02.165Z,41.34
2017-06-14T12:40:02.655Z,41.39
2017-06-14T12:50:02.952Z,41.88
2017-06-14T13:00:02.395Z,41.97
2017-06-14T13:10:02.217Z,40.96
2017-06-14T13:20:02.207Z,43.3
2017-06-14T13:30:02.684Z,40.2
2017-06-14T13:40:02.878Z,43.9
2017-06-14T13:50:02.075Z,42.99
2017-06-14T14:00:02.575Z,43.01
2017-06-14T14:10:02.238Z,43.29
2017-06-14T14:20:02.211Z,44.9
2017-06-14T14:30:02.653Z,43
2017-06-14T14:40:02.523Z,41.96
2017-06-14T14:50:02.687Z,44.1
2017-06-14T15:00:02.166Z,43.89
2017-06-14T15:10:02.303Z,43.27
2017-06-14T15:20:02.567Z,42.04
2017-06-14T15:30:02.995Z,43.12
2017-06-14T15:40:02.691Z,42.99
2017-06-14T15:50:02.614Z,42.81
2017-06-14T16:00:17.037Z,44.3
2017-06-14T16:10:02.900Z,44.65
2017-06-14T16:20:02.974Z,45.36
2017-06-14T16:30:02.428Z,45.84
2017-06-14T16:40:02.914Z,44.79
2017-06-14T16:50:02.335Z,46.19
2017-06-14T17:00:02.848Z,48.39
2017-06-14T17:10:02.527Z,48.7
2017-06-14T17:20:02.725Z,49.52
2017-06-14T17:30:02.208Z,50.06
2017-06-14T17:40:02.653Z,50.67
2017-06-14T17:50:02.516Z,51.32
2017-06-14T18:00:03.036Z,52.62
2017-06-14T18:10:02.144Z,54.16
2017-06-14T18:20:02.681Z,54.88
2017-06-14T18:30:02.182Z,55.66
2017-06-14T18:40:02.667Z,57.41
2017-06-14T18:50:02.702Z,58.29
2017-06-14T19:00:02.208Z,60.43
2017-06-14T19:10:02.507Z,59.97
2017-06-14T19:20:02.261Z,61.98
2017-06-14T19:30:02.800Z,63.43
2017-06-14T19:40:02.282Z,64.91
2017-06-14T19:50:02.033Z,66.48
2017-06-14T20:00:02.540Z,67.97
2017-06-14T20:10:02.898Z,68.73
2017-06-14T20:20:02.796Z,70.12
2017-06-14T20:30:02.290Z,70.99
2017-06-14T20:40:02.909Z,71.4
2017-06-14T20:50:02.928Z,72.85
2017-06-14T21:00:02.504Z,74
2017-06-14T21:10:02.811Z,72.92
2017-06-14T21:20:02.207Z,73.91
2017-06-14T21:30:02.676Z,73.63
2017-06-14T21:40:02.142Z,74.57
2017-06-14T21:50:02.742Z,73.99
2017-06-14T22:00:02.380Z,74.89
2017-06-14T22:10:03.027Z,75.85
2017-06-14T22:20:02.694Z,76.26
2017-06-14T22:30:02.201Z,76.98
2017-06-14T22:40:02.280Z,77.32
2017-06-14T22:50:02.789Z,78.24
2017-06-14T23:00:02.336Z,78.75
2017-06-14T23:10:02.237Z,79.94
2017-06-14T23:20:02.444Z,79.7
2017-06-14T23:30:02.952Z,80.07
2017-06-14T23:40:02.457Z,81.05
2017-06-14T23:50:02.068Z,81.65
